Terminal Aerodrome Forecast
Issued by NWS

Home | Current Version | Previous Version | Text Only | Print | Product List | Glossary On
Versions: 1 2 3 4 5 6 7 8 9 10 11 12 13 14 15 16 17 18 19 20 21 22 23 24
000
FTUS43 KPAH 241720
TAFOWB
TAF
KOWB 241720Z 2418/2518 09010KT 4SM -SHRA BR OVC005
      TEMPO 2418/2422 2SM SHRA BR SCT005 BKN015
     FM242200 15008KT 4SM -SHRA VCTS OVC008CB
     FM250100 17012G20KT 3SM SHRA VCTS OVC010CB
     FM250600 24015G25KT 4SM -SHRA OVC010
     FM250800 27017G27KT P6SM VCSH OVC015
     FM251000 27015G25KT P6SM BKN025
     FM251200 27010KT P6SM SCT030
     FM251500 28008KT P6SM SKC=

USA.gov is the U.S. government's official web portal to all federal, state and local government web resources and services.